sensor_id;sensor_type;location;lat;lon;timestamp;P1;durP1;ratioP1;P2;durP2;ratioP2
7813;SDS011;3952;48.364;16.022;2022-12-18T00:02:13;7.40;;;6.77;;
7813;SDS011;3952;48.364;16.022;2022-12-18T00:04:41;7.80;;;6.40;;
7813;SDS011;3952;48.364;16.022;2022-12-18T00:07:09;7.23;;;6.50;;
7813;SDS011;3952;48.364;16.022;2022-12-18T00:09:36;6.67;;;5.97;;
7813;SDS011;3952;48.364;16.022;2022-12-18T00:12:04;6.97;;;6.37;;
7813;SDS011;3952;48.364;16.022;2022-12-18T00:14:31;7.47;;;6.77;;
7813;SDS011;3952;48.364;16.022;2022-12-18T00:16:59;6.37;;;5.87;;
7813;SDS011;3952;48.364;16.022;2022-12-18T00:19:26;6.60;;;6.00;;
7813;SDS011;3952;48.364;16.022;2022-12-18T00:21:54;8.37;;;7.20;;
7813;SDS011;3952;48.364;16.022;2022-12-18T00:24:22;7.10;;;6.40;;
7813;SDS011;3952;48.364;16.022;2022-12-18T00:26:49;5.90;;;5.40;;
7813;SDS011;3952;48.364;16.022;2022-12-18T00:29:17;6.97;;;6.40;;
7813;SDS011;3952;48.364;16.022;2022-12-18T00:31:44;6.67;;;6.07;;
7813;SDS011;3952;48.364;16.022;2022-12-18T00:34:11;6.23;;;5.63;;
7813;SDS011;3952;48.364;16.022;2022-12-18T00:36:39;6.30;;;5.80;;
7813;SDS011;3952;48.364;16.022;2022-12-18T00:39:07;6.47;;;5.93;;
7813;SDS011;3952;48.364;16.022;2022-12-18T00:41:37;6.30;;;5.80;;
7813;SDS011;3952;48.364;16.022;2022-12-18T00:44:27;6.43;;;5.87;;
7813;SDS011;3952;48.364;16.022;2022-12-18T00:46:54;6.60;;;6.00;;
7813;SDS011;3952;48.364;16.022;2022-12-18T00:49:21;6.50;;;6.00;;
7813;SDS011;3952;48.364;16.022;2022-12-18T00:51:48;6.33;;;5.80;;
7813;SDS011;3952;48.364;16.022;2022-12-18T00:54:16;5.97;;;5.40;;
7813;SDS011;3952;48.364;16.022;2022-12-18T00:56:45;6.67;;;5.97;;
7813;SDS011;3952;48.364;16.022;2022-12-18T00:59:12;6.67;;;6.07;;
7813;SDS011;3952;48.364;16.022;2022-12-18T01:01:39;6.37;;;5.87;;
7813;SDS011;3952;48.364;16.022;2022-12-18T01:04:07;6.07;;;5.57;;
7813;SDS011;3952;48.364;16.022;2022-12-18T01:06:34;5.87;;;5.37;;
7813;SDS011;3952;48.364;16.022;2022-12-18T01:09:01;5.37;;;4.97;;
7813;SDS011;3952;48.364;16.022;2022-12-18T01:11:29;6.20;;;5.60;;
7813;SDS011;3952;48.364;16.022;2022-12-18T01:13:57;5.93;;;5.43;;
7813;SDS011;3952;48.364;16.022;2022-12-18T01:16:25;6.60;;;6.03;;
7813;SDS011;3952;48.364;16.022;2022-12-18T01:18:52;6.10;;;5.60;;
7813;SDS011;3952;48.364;16.022;2022-12-18T01:21:20;5.70;;;5.30;;
7813;SDS011;3952;48.364;16.022;2022-12-18T01:23:51;6.63;;;6.03;;
7813;SDS011;3952;48.364;16.022;2022-12-18T01:26:18;6.43;;;5.83;;
7813;SDS011;3952;48.364;16.022;2022-12-18T01:28:46;6.23;;;5.70;;
7813;SDS011;3952;48.364;16.022;2022-12-18T01:31:16;6.73;;;6.13;;
7813;SDS011;3952;48.364;16.022;2022-12-18T01:33:44;6.03;;;5.60;;
7813;SDS011;3952;48.364;16.022;2022-12-18T01:36:16;5.73;;;5.33;;
7813;SDS011;3952;48.364;16.022;2022-12-18T01:38:44;6.63;;;6.03;;
7813;SDS011;3952;48.364;16.022;2022-12-18T01:41:12;6.57;;;5.97;;
7813;SDS011;3952;48.364;16.022;2022-12-18T01:43:45;6.10;;;5.60;;
7813;SDS011;3952;48.364;16.022;2022-12-18T01:46:19;5.97;;;5.47;;
7813;SDS011;3952;48.364;16.022;2022-12-18T01:48:48;6.33;;;5.73;;
7813;SDS011;3952;48.364;16.022;2022-12-18T01:51:16;6.27;;;5.77;;
7813;SDS011;3952;48.364;16.022;2022-12-18T01:53:44;7.23;;;6.03;;
7813;SDS011;3952;48.364;16.022;2022-12-18T01:56:13;6.57;;;5.87;;
7813;SDS011;3952;48.364;16.022;2022-12-18T01:58:45;6.93;;;6.37;;
7813;SDS011;3952;48.364;16.022;2022-12-18T02:01:19;7.00;;;6.30;;
7813;SDS011;3952;48.364;16.022;2022-12-18T02:03:48;8.07;;;7.27;;
7813;SDS011;3952;48.364;16.022;2022-12-18T02:06:16;8.70;;;7.73;;
7813;SDS011;3952;48.364;16.022;2022-12-18T02:08:53;8.60;;;7.50;;
7813;SDS011;3952;48.364;16.022;2022-12-18T02:11:32;9.80;;;6.90;;
7813;SDS011;3952;48.364;16.022;2022-12-18T02:14:10;9.33;;;7.87;;
7813;SDS011;3952;48.364;16.022;2022-12-18T02:16:46;9.03;;;6.93;;
7813;SDS011;3952;48.364;16.022;2022-12-18T02:19:24;7.93;;;7.13;;
7813;SDS011;3952;48.364;16.022;2022-12-18T02:22:07;7.70;;;6.63;;
7813;SDS011;3952;48.364;16.022;2022-12-18T02:24:50;7.60;;;6.90;;
7813;SDS011;3952;48.364;16.022;2022-12-18T02:27:27;7.70;;;6.93;;
7813;SDS011;3952;48.364;16.022;2022-12-18T02:29:57;7.47;;;6.73;;
7813;SDS011;3952;48.364;16.022;2022-12-18T02:32:31;7.53;;;6.83;;
7813;SDS011;3952;48.364;16.022;2022-12-18T02:35:01;7.23;;;6.53;;
7813;SDS011;3952;48.364;16.022;2022-12-18T02:37:31;7.47;;;6.77;;
7813;SDS011;3952;48.364;16.022;2022-12-18T02:40:00;8.10;;;7.40;;
7813;SDS011;3952;48.364;16.022;2022-12-18T02:42:31;8.00;;;7.17;;
7813;SDS011;3952;48.364;16.022;2022-12-18T02:44:59;8.03;;;7.23;;
7813;SDS011;3952;48.364;16.022;2022-12-18T02:47:27;9.10;;;6.60;;
7813;SDS011;3952;48.364;16.022;2022-12-18T02:50:00;8.13;;;7.33;;
7813;SDS011;3952;48.364;16.022;2022-12-18T02:52:35;7.57;;;6.67;;
7813;SDS011;3952;48.364;16.022;2022-12-18T02:55:13;7.90;;;7.00;;
7813;SDS011;3952;48.364;16.022;2022-12-18T02:57:49;8.27;;;7.30;;
7813;SDS011;3952;48.364;16.022;2022-12-18T03:00:21;7.57;;;6.87;;
7813;SDS011;3952;48.364;16.022;2022-12-18T03:02:51;8.20;;;7.23;;
7813;SDS011;3952;48.364;16.022;2022-12-18T03:05:28;9.23;;;7.90;;
7813;SDS011;3952;48.364;16.022;2022-12-18T03:08:00;8.57;;;7.77;;
7813;SDS011;3952;48.364;16.022;2022-12-18T03:10:33;8.20;;;7.20;;
7813;SDS011;3952;48.364;16.022;2022-12-18T03:13:08;8.73;;;7.37;;
7813;SDS011;3952;48.364;16.022;2022-12-18T03:15:39;9.30;;;7.93;;
7813;SDS011;3952;48.364;16.022;2022-12-18T03:18:10;8.33;;;7.53;;
7813;SDS011;3952;48.364;16.022;2022-12-18T03:20:44;7.67;;;6.90;;
7813;SDS011;3952;48.364;16.022;2022-12-18T03:23:13;8.10;;;7.30;;
7813;SDS011;3952;48.364;16.022;2022-12-18T03:25:45;8.27;;;7.53;;
7813;SDS011;3952;48.364;16.022;2022-12-18T03:28:18;7.47;;;6.67;;
7813;SDS011;3952;48.364;16.022;2022-12-18T03:30:49;9.60;;;6.60;;
7813;SDS011;3952;48.364;16.022;2022-12-18T03:33:24;7.30;;;6.70;;
7813;SDS011;3952;48.364;16.022;2022-12-18T03:35:54;8.03;;;7.23;;
7813;SDS011;3952;48.364;16.022;2022-12-18T03:38:21;8.33;;;7.20;;
7813;SDS011;3952;48.364;16.022;2022-12-18T03:40:51;11.10;;;7.57;;
7813;SDS011;3952;48.364;16.022;2022-12-18T03:43:30;7.83;;;6.73;;
7813;SDS011;3952;48.364;16.022;2022-12-18T03:46:07;7.33;;;6.63;;
7813;SDS011;3952;48.364;16.022;2022-12-18T03:48:39;7.57;;;6.80;;
7813;SDS011;3952;48.364;16.022;2022-12-18T03:51:11;8.50;;;6.93;;
7813;SDS011;3952;48.364;16.022;2022-12-18T03:53:46;8.23;;;7.40;;
7813;SDS011;3952;48.364;16.022;2022-12-18T03:56:18;8.30;;;7.47;;
7813;SDS011;3952;48.364;16.022;2022-12-18T03:58:50;7.77;;;7.07;;
7813;SDS011;3952;48.364;16.022;2022-12-18T04:01:20;8.73;;;6.87;;
7813;SDS011;3952;48.364;16.022;2022-12-18T04:03:51;7.37;;;6.60;;
7813;SDS011;3952;48.364;16.022;2022-12-18T04:06:20;8.53;;;6.33;;
7813;SDS011;3952;48.364;16.022;2022-12-18T04:08:47;8.47;;;6.73;;
7813;SDS011;3952;48.364;16.022;2022-12-18T04:11:15;7.70;;;7.00;;
7813;SDS011;3952;48.364;16.022;2022-12-18T04:13:42;8.13;;;6.10;;
7813;SDS011;3952;48.364;16.022;2022-12-18T04:16:11;8.53;;;6.83;;
7813;SDS011;3952;48.364;16.022;2022-12-18T04:18:38;7.57;;;6.73;;
7813;SDS011;3952;48.364;16.022;2022-12-18T04:21:06;9.30;;;7.00;;
7813;SDS011;3952;48.364;16.022;2022-12-18T04:23:33;8.50;;;6.87;;
7813;SDS011;3952;48.364;16.022;2022-12-18T04:26:00;7.47;;;6.77;;
7813;SDS011;3952;48.364;16.022;2022-12-18T04:28:28;8.03;;;7.30;;
7813;SDS011;3952;48.364;16.022;2022-12-18T04:30:55;9.40;;;7.97;;
7813;SDS011;3952;48.364;16.022;2022-12-18T04:33:23;7.67;;;6.90;;
7813;SDS011;3952;48.364;16.022;2022-12-18T04:35:51;7.70;;;7.00;;
7813;SDS011;3952;48.364;16.022;2022-12-18T04:38:18;7.53;;;6.83;;
7813;SDS011;3952;48.364;16.022;2022-12-18T04:40:45;7.77;;;6.53;;
7813;SDS011;3952;48.364;16.022;2022-12-18T04:43:13;7.93;;;6.70;;
7813;SDS011;3952;48.364;16.022;2022-12-18T04:45:40;6.63;;;6.03;;
7813;SDS011;3952;48.364;16.022;2022-12-18T04:48:07;6.77;;;5.97;;
7813;SDS011;3952;48.364;16.022;2022-12-18T04:50:36;7.03;;;6.33;;
7813;SDS011;3952;48.364;16.022;2022-12-18T04:53:03;6.50;;;5.90;;
7813;SDS011;3952;48.364;16.022;2022-12-18T04:55:31;6.80;;;6.20;;
7813;SDS011;3952;48.364;16.022;2022-12-18T04:57:58;7.07;;;6.33;;
7813;SDS011;3952;48.364;16.022;2022-12-18T05:00:25;6.63;;;6.00;;
7813;SDS011;3952;48.364;16.022;2022-12-18T05:02:53;7.93;;;6.43;;
7813;SDS011;3952;48.364;16.022;2022-12-18T05:05:20;7.17;;;6.47;;
7813;SDS011;3952;48.364;16.022;2022-12-18T05:07:49;6.87;;;6.23;;
7813;SDS011;3952;48.364;16.022;2022-12-18T05:10:16;6.17;;;5.57;;
7813;SDS011;3952;48.364;16.022;2022-12-18T05:12:43;6.43;;;5.93;;
7813;SDS011;3952;48.364;16.022;2022-12-18T05:15:27;6.77;;;6.13;;
7813;SDS011;3952;48.364;16.022;2022-12-18T05:17:56;8.13;;;6.50;;
7813;SDS011;3952;48.364;16.022;2022-12-18T05:20:23;8.70;;;7.00;;
7813;SDS011;3952;48.364;16.022;2022-12-18T05:22:52;7.50;;;6.53;;
7813;SDS011;3952;48.364;16.022;2022-12-18T05:25:21;7.87;;;6.97;;
7813;SDS011;3952;48.364;16.022;2022-12-18T05:27:49;7.90;;;6.57;;
7813;SDS011;3952;48.364;16.022;2022-12-18T05:30:16;9.07;;;7.60;;
7813;SDS011;3952;48.364;16.022;2022-12-18T05:32:44;9.17;;;7.20;;
7813;SDS011;3952;48.364;16.022;2022-12-18T05:35:11;8.13;;;6.80;;
7813;SDS011;3952;48.364;16.022;2022-12-18T05:37:38;7.83;;;6.97;;
7813;SDS011;3952;48.364;16.022;2022-12-18T05:40:08;12.13;;;7.63;;
7813;SDS011;3952;48.364;16.022;2022-12-18T05:42:36;10.10;;;7.60;;
7813;SDS011;3952;48.364;16.022;2022-12-18T05:45:04;11.40;;;7.57;;
7813;SDS011;3952;48.364;16.022;2022-12-18T05:47:32;9.30;;;7.53;;
7813;SDS011;3952;48.364;16.022;2022-12-18T05:50:00;9.23;;;7.17;;
7813;SDS011;3952;48.364;16.022;2022-12-18T05:52:27;8.50;;;7.60;;
7813;SDS011;3952;48.364;16.022;2022-12-18T05:54:54;9.97;;;7.07;;
7813;SDS011;3952;48.364;16.022;2022-12-18T05:57:23;7.60;;;6.80;;
7813;SDS011;3952;48.364;16.022;2022-12-18T05:59:50;7.60;;;6.80;;
7813;SDS011;3952;48.364;16.022;2022-12-18T06:02:17;10.30;;;7.47;;
7813;SDS011;3952;48.364;16.022;2022-12-18T06:04:46;8.03;;;7.23;;
7813;SDS011;3952;48.364;16.022;2022-12-18T06:07:13;10.27;;;7.13;;
7813;SDS011;3952;48.364;16.022;2022-12-18T06:09:40;7.33;;;6.70;;
7813;SDS011;3952;48.364;16.022;2022-12-18T06:12:07;7.33;;;6.63;;
7813;SDS011;3952;48.364;16.022;2022-12-18T06:14:37;7.03;;;6.33;;
7813;SDS011;3952;48.364;16.022;2022-12-18T06:17:04;8.77;;;6.70;;
7813;SDS011;3952;48.364;16.022;2022-12-18T06:19:31;6.67;;;6.03;;
7813;SDS011;3952;48.364;16.022;2022-12-18T06:21:58;7.93;;;6.17;;
7813;SDS011;3952;48.364;16.022;2022-12-18T06:24:26;10.57;;;7.03;;
7813;SDS011;3952;48.364;16.022;2022-12-18T06:26:53;7.60;;;6.60;;
7813;SDS011;3952;48.364;16.022;2022-12-18T06:29:21;7.67;;;6.97;;
7813;SDS011;3952;48.364;16.022;2022-12-18T06:31:59;8.03;;;6.57;;
7813;SDS011;3952;48.364;16.022;2022-12-18T06:34:27;7.93;;;6.63;;
7813;SDS011;3952;48.364;16.022;2022-12-18T06:36:54;9.13;;;7.13;;
7813;SDS011;3952;48.364;16.022;2022-12-18T06:39:21;10.10;;;8.03;;
7813;SDS011;3952;48.364;16.022;2022-12-18T06:41:48;8.83;;;6.97;;
7813;SDS011;3952;48.364;16.022;2022-12-18T06:44:16;7.47;;;6.60;;
7813;SDS011;3952;48.364;16.022;2022-12-18T06:46:43;8.77;;;6.63;;
7813;SDS011;3952;48.364;16.022;2022-12-18T06:49:12;8.40;;;7.60;;
7813;SDS011;3952;48.364;16.022;2022-12-18T06:51:42;8.37;;;7.03;;
7813;SDS011;3952;48.364;16.022;2022-12-18T06:54:09;8.40;;;7.03;;
7813;SDS011;3952;48.364;16.022;2022-12-18T06:56:36;7.13;;;6.50;;
7813;SDS011;3952;48.364;16.022;2022-12-18T06:59:04;10.40;;;7.40;;
7813;SDS011;3952;48.364;16.022;2022-12-18T07:01:31;7.73;;;6.97;;
7813;SDS011;3952;48.364;16.022;2022-12-18T07:03:58;7.83;;;7.00;;
7813;SDS011;3952;48.364;16.022;2022-12-18T07:06:28;7.83;;;6.20;;
7813;SDS011;3952;48.364;16.022;2022-12-18T07:08:57;9.80;;;6.80;;
7813;SDS011;3952;48.364;16.022;2022-12-18T07:11:25;7.53;;;6.67;;
7813;SDS011;3952;48.364;16.022;2022-12-18T07:13:52;9.80;;;7.40;;
7813;SDS011;3952;48.364;16.022;2022-12-18T07:16:20;8.77;;;7.00;;
7813;SDS011;3952;48.364;16.022;2022-12-18T07:18:47;9.37;;;7.43;;
7813;SDS011;3952;48.364;16.022;2022-12-18T07:21:15;8.33;;;6.97;;
7813;SDS011;3952;48.364;16.022;2022-12-18T07:23:45;10.23;;;7.60;;
7813;SDS011;3952;48.364;16.022;2022-12-18T07:26:13;9.63;;;7.60;;
7813;SDS011;3952;48.364;16.022;2022-12-18T07:28:42;13.00;;;7.97;;
7813;SDS011;3952;48.364;16.022;2022-12-18T07:31:10;10.30;;;8.20;;
7813;SDS011;3952;48.364;16.022;2022-12-18T07:33:40;8.30;;;7.47;;
7813;SDS011;3952;48.364;16.022;2022-12-18T07:36:08;9.37;;;8.43;;
7813;SDS011;3952;48.364;16.022;2022-12-18T07:38:36;10.20;;;8.47;;
7813;SDS011;3952;48.364;16.022;2022-12-18T07:41:07;11.90;;;8.53;;
7813;SDS011;3952;48.364;16.022;2022-12-18T07:43:36;9.67;;;8.47;;
7813;SDS011;3952;48.364;16.022;2022-12-18T07:46:04;11.83;;;9.37;;
7813;SDS011;3952;48.364;16.022;2022-12-18T07:48:32;11.63;;;8.20;;
7813;SDS011;3952;48.364;16.022;2022-12-18T07:50:59;11.27;;;8.77;;
7813;SDS011;3952;48.364;16.022;2022-12-18T07:53:26;13.73;;;10.03;;
7813;SDS011;3952;48.364;16.022;2022-12-18T07:55:55;20.03;;;12.43;;
7813;SDS011;3952;48.364;16.022;2022-12-18T07:58:24;34.10;;;16.67;;
7813;SDS011;3952;48.364;16.022;2022-12-18T08:00:52;38.33;;;18.50;;
7813;SDS011;3952;48.364;16.022;2022-12-18T08:03:20;11.70;;;9.90;;
7813;SDS011;3952;48.364;16.022;2022-12-18T08:05:47;10.83;;;9.73;;
7813;SDS011;3952;48.364;16.022;2022-12-18T08:08:14;13.50;;;10.03;;
7813;SDS011;3952;48.364;16.022;2022-12-18T08:10:41;14.37;;;11.53;;
7813;SDS011;3952;48.364;16.022;2022-12-18T08:13:08;15.53;;;10.87;;
7813;SDS011;3952;48.364;16.022;2022-12-18T08:15:37;18.27;;;12.17;;
7813;SDS011;3952;48.364;16.022;2022-12-18T08:18:04;16.73;;;11.97;;
7813;SDS011;3952;48.364;16.022;2022-12-18T08:20:31;17.70;;;11.70;;
7813;SDS011;3952;48.364;16.022;2022-12-18T08:22:58;16.67;;;11.07;;
7813;SDS011;3952;48.364;16.022;2022-12-18T08:25:26;15.27;;;11.20;;
7813;SDS011;3952;48.364;16.022;2022-12-18T08:27:53;18.17;;;11.57;;
7813;SDS011;3952;48.364;16.022;2022-12-18T08:30:21;17.63;;;11.60;;
7813;SDS011;3952;48.364;16.022;2022-12-18T08:32:52;18.20;;;11.47;;
7813;SDS011;3952;48.364;16.022;2022-12-18T08:35:19;16.00;;;11.37;;
7813;SDS011;3952;48.364;16.022;2022-12-18T08:37:46;24.83;;;13.07;;
7813;SDS011;3952;48.364;16.022;2022-12-18T08:40:14;14.03;;;10.70;;
7813;SDS011;3952;48.364;16.022;2022-12-18T08:42:41;21.70;;;12.80;;
7813;SDS011;3952;48.364;16.022;2022-12-18T08:45:25;13.93;;;11.03;;
7813;SDS011;3952;48.364;16.022;2022-12-18T08:47:55;15.70;;;11.10;;
7813;SDS011;3952;48.364;16.022;2022-12-18T08:50:22;13.23;;;10.83;;
7813;SDS011;3952;48.364;16.022;2022-12-18T08:52:49;17.60;;;11.50;;
7813;SDS011;3952;48.364;16.022;2022-12-18T08:55:16;17.83;;;12.40;;
7813;SDS011;3952;48.364;16.022;2022-12-18T08:57:47;17.03;;;11.90;;
7813;SDS011;3952;48.364;16.022;2022-12-18T09:00:15;11.70;;;10.60;;
7813;SDS011;3952;48.364;16.022;2022-12-18T09:02:43;24.87;;;11.50;;
7813;SDS011;3952;48.364;16.022;2022-12-18T09:05:11;12.93;;;10.57;;
7813;SDS011;3952;48.364;16.022;2022-12-18T09:07:39;12.87;;;11.50;;
7813;SDS011;3952;48.364;16.022;2022-12-18T09:10:06;18.40;;;12.63;;
7813;SDS011;3952;48.364;16.022;2022-12-18T09:12:34;18.00;;;13.17;;
7813;SDS011;3952;48.364;16.022;2022-12-18T09:15:01;15.17;;;12.13;;
7813;SDS011;3952;48.364;16.022;2022-12-18T09:17:28;20.87;;;12.33;;
7813;SDS011;3952;48.364;16.022;2022-12-18T09:19:56;18.13;;;12.33;;
7813;SDS011;3952;48.364;16.022;2022-12-18T09:22:24;19.97;;;13.43;;
7813;SDS011;3952;48.364;16.022;2022-12-18T09:24:51;24.30;;;14.97;;
7813;SDS011;3952;48.364;16.022;2022-12-18T09:27:19;28.77;;;16.33;;
7813;SDS011;3952;48.364;16.022;2022-12-18T09:29:46;22.57;;;15.00;;
7813;SDS011;3952;48.364;16.022;2022-12-18T09:32:13;21.73;;;13.87;;
7813;SDS011;3952;48.364;16.022;2022-12-18T09:34:40;31.80;;;16.30;;
7813;SDS011;3952;48.364;16.022;2022-12-18T09:37:07;33.43;;;18.07;;
7813;SDS011;3952;48.364;16.022;2022-12-18T09:39:36;25.90;;;16.10;;
7813;SDS011;3952;48.364;16.022;2022-12-18T09:42:04;24.00;;;14.93;;
7813;SDS011;3952;48.364;16.022;2022-12-18T09:44:33;26.67;;;15.73;;
7813;SDS011;3952;48.364;16.022;2022-12-18T09:47:07;26.53;;;16.47;;
7813;SDS011;3952;48.364;16.022;2022-12-18T09:49:39;28.13;;;16.67;;
7813;SDS011;3952;48.364;16.022;2022-12-18T09:52:11;31.23;;;18.10;;
7813;SDS011;3952;48.364;16.022;2022-12-18T09:54:44;24.83;;;14.97;;
7813;SDS011;3952;48.364;16.022;2022-12-18T09:57:15;30.50;;;17.03;;
7813;SDS011;3952;48.364;16.022;2022-12-18T09:59:48;23.67;;;14.47;;
7813;SDS011;3952;48.364;16.022;2022-12-18T10:02:19;27.43;;;14.97;;
7813;SDS011;3952;48.364;16.022;2022-12-18T10:04:51;29.50;;;15.27;;
7813;SDS011;3952;48.364;16.022;2022-12-18T10:07:32;29.17;;;15.90;;
7813;SDS011;3952;48.364;16.022;2022-12-18T10:10:11;28.20;;;16.53;;
7813;SDS011;3952;48.364;16.022;2022-12-18T10:12:47;36.40;;;17.87;;
7813;SDS011;3952;48.364;16.022;2022-12-18T10:15:24;27.67;;;15.70;;
7813;SDS011;3952;48.364;16.022;2022-12-18T10:17:58;32.03;;;17.23;;
7813;SDS011;3952;48.364;16.022;2022-12-18T10:20:38;28.57;;;16.83;;
7813;SDS011;3952;48.364;16.022;2022-12-18T10:23:12;27.53;;;15.50;;
7813;SDS011;3952;48.364;16.022;2022-12-18T10:25:50;31.23;;;17.60;;
7813;SDS011;3952;48.364;16.022;2022-12-18T10:28:21;29.07;;;16.40;;
7813;SDS011;3952;48.364;16.022;2022-12-18T10:30:50;29.70;;;16.10;;
7813;SDS011;3952;48.364;16.022;2022-12-18T10:33:18;27.87;;;14.73;;
7813;SDS011;3952;48.364;16.022;2022-12-18T10:35:48;25.67;;;14.93;;
7813;SDS011;3952;48.364;16.022;2022-12-18T10:38:20;25.13;;;15.10;;
7813;SDS011;3952;48.364;16.022;2022-12-18T10:40:52;27.10;;;14.57;;
7813;SDS011;3952;48.364;16.022;2022-12-18T10:43:22;27.37;;;15.00;;
7813;SDS011;3952;48.364;16.022;2022-12-18T10:46:01;24.00;;;13.83;;
7813;SDS011;3952;48.364;16.022;2022-12-18T10:48:35;24.33;;;12.97;;
7813;SDS011;3952;48.364;16.022;2022-12-18T10:51:07;25.90;;;14.77;;
7813;SDS011;3952;48.364;16.022;2022-12-18T10:53:35;28.83;;;15.60;;
7813;SDS011;3952;48.364;16.022;2022-12-18T10:56:05;27.97;;;15.77;;
7813;SDS011;3952;48.364;16.022;2022-12-18T10:58:33;34.93;;;16.40;;
7813;SDS011;3952;48.364;16.022;2022-12-18T11:01:03;35.80;;;17.77;;
7813;SDS011;3952;48.364;16.022;2022-12-18T11:03:36;33.37;;;17.07;;
7813;SDS011;3952;48.364;16.022;2022-12-18T11:06:07;33.73;;;17.23;;
7813;SDS011;3952;48.364;16.022;2022-12-18T11:08:36;32.33;;;17.13;;
7813;SDS011;3952;48.364;16.022;2022-12-18T11:11:06;29.30;;;15.00;;
7813;SDS011;3952;48.364;16.022;2022-12-18T11:13:42;33.17;;;17.17;;
7813;SDS011;3952;48.364;16.022;2022-12-18T11:16:30;42.53;;;19.57;;
7813;SDS011;3952;48.364;16.022;2022-12-18T11:19:12;27.13;;;15.47;;
7813;SDS011;3952;48.364;16.022;2022-12-18T11:21:50;29.83;;;16.37;;
7813;SDS011;3952;48.364;16.022;2022-12-18T11:24:20;29.23;;;16.23;;
7813;SDS011;3952;48.364;16.022;2022-12-18T11:26:55;30.13;;;16.70;;
7813;SDS011;3952;48.364;16.022;2022-12-18T11:29:26;43.93;;;21.57;;
7813;SDS011;3952;48.364;16.022;2022-12-18T11:35:03;33.83;;;16.20;;
7813;SDS011;3952;48.364;16.022;2022-12-18T11:37:39;36.27;;;16.63;;
7813;SDS011;3952;48.364;16.022;2022-12-18T11:40:10;50.47;;;23.83;;
7813;SDS011;3952;48.364;16.022;2022-12-18T11:42:45;37.00;;;17.60;;
7813;SDS011;3952;48.364;16.022;2022-12-18T11:45:20;29.57;;;14.73;;
7813;SDS011;3952;48.364;16.022;2022-12-18T11:47:54;37.57;;;18.10;;
7813;SDS011;3952;48.364;16.022;2022-12-18T11:50:26;24.47;;;14.93;;
7813;SDS011;3952;48.364;16.022;2022-12-18T11:52:58;33.53;;;17.57;;
7813;SDS011;3952;48.364;16.022;2022-12-18T11:55:28;30.17;;;15.97;;
7813;SDS011;3952;48.364;16.022;2022-12-18T11:58:07;44.87;;;23.10;;
7813;SDS011;3952;48.364;16.022;2022-12-18T12:00:41;26.97;;;14.33;;
7813;SDS011;3952;48.364;16.022;2022-12-18T12:03:35;22.90;;;14.00;;
7813;SDS011;3952;48.364;16.022;2022-12-18T12:06:15;33.00;;;17.57;;
7813;SDS011;3952;48.364;16.022;2022-12-18T12:08:57;25.23;;;14.60;;
7813;SDS011;3952;48.364;16.022;2022-12-18T12:11:32;26.60;;;14.00;;
7813;SDS011;3952;48.364;16.022;2022-12-18T12:14:16;29.10;;;15.50;;
7813;SDS011;3952;48.364;16.022;2022-12-18T12:16:56;33.40;;;18.47;;
7813;SDS011;3952;48.364;16.022;2022-12-18T12:19:34;43.40;;;19.57;;
7813;SDS011;3952;48.364;16.022;2022-12-18T12:22:10;30.17;;;15.60;;
7813;SDS011;3952;48.364;16.022;2022-12-18T12:24:49;30.87;;;15.20;;
7813;SDS011;3952;48.364;16.022;2022-12-18T12:27:25;33.63;;;16.90;;
7813;SDS011;3952;48.364;16.022;2022-12-18T12:30:05;32.17;;;17.70;;
7813;SDS011;3952;48.364;16.022;2022-12-18T12:32:41;27.20;;;15.00;;
7813;SDS011;3952;48.364;16.022;2022-12-18T12:35:22;25.77;;;13.63;;
7813;SDS011;3952;48.364;16.022;2022-12-18T12:38:02;26.60;;;15.27;;
7813;SDS011;3952;48.364;16.022;2022-12-18T12:40:35;27.60;;;14.77;;
7813;SDS011;3952;48.364;16.022;2022-12-18T12:43:10;30.40;;;16.13;;
7813;SDS011;3952;48.364;16.022;2022-12-18T12:45:48;32.60;;;17.30;;
7813;SDS011;3952;48.364;16.022;2022-12-18T12:48:20;32.07;;;15.40;;
7813;SDS011;3952;48.364;16.022;2022-12-18T12:50:57;28.97;;;14.97;;
7813;SDS011;3952;48.364;16.022;2022-12-18T12:53:27;26.23;;;14.70;;
7813;SDS011;3952;48.364;16.022;2022-12-18T12:55:57;29.23;;;15.30;;
7813;SDS011;3952;48.364;16.022;2022-12-18T12:58:28;27.97;;;14.73;;
7813;SDS011;3952;48.364;16.022;2022-12-18T13:01:04;35.30;;;16.07;;
7813;SDS011;3952;48.364;16.022;2022-12-18T13:03:43;33.37;;;14.77;;
7813;SDS011;3952;48.364;16.022;2022-12-18T13:06:19;27.83;;;13.50;;
7813;SDS011;3952;48.364;16.022;2022-12-18T13:08:56;27.47;;;14.00;;
7813;SDS011;3952;48.364;16.022;2022-12-18T13:14:31;35.00;;;16.40;;
7813;SDS011;3952;48.364;16.022;2022-12-18T13:20:02;28.63;;;14.83;;
7813;SDS011;3952;48.364;16.022;2022-12-18T13:22:34;30.77;;;16.43;;
7813;SDS011;3952;48.364;16.022;2022-12-18T13:25:03;27.93;;;13.67;;
7813;SDS011;3952;48.364;16.022;2022-12-18T13:28:08;30.77;;;15.57;;
7813;SDS011;3952;48.364;16.022;2022-12-18T13:30:42;26.13;;;14.50;;
7813;SDS011;3952;48.364;16.022;2022-12-18T13:33:37;30.53;;;16.07;;
7813;SDS011;3952;48.364;16.022;2022-12-18T13:36:10;28.07;;;14.50;;
7813;SDS011;3952;48.364;16.022;2022-12-18T13:38:41;31.27;;;14.77;;
7813;SDS011;3952;48.364;16.022;2022-12-18T13:41:22;31.53;;;16.90;;
7813;SDS011;3952;48.364;16.022;2022-12-18T13:43:53;27.90;;;15.63;;
7813;SDS011;3952;48.364;16.022;2022-12-18T13:46:24;28.03;;;14.70;;
7813;SDS011;3952;48.364;16.022;2022-12-18T13:48:57;25.97;;;14.43;;
7813;SDS011;3952;48.364;16.022;2022-12-18T13:51:27;31.30;;;15.17;;
7813;SDS011;3952;48.364;16.022;2022-12-18T13:53:57;27.40;;;13.77;;
7813;SDS011;3952;48.364;16.022;2022-12-18T13:56:27;27.33;;;14.77;;
7813;SDS011;3952;48.364;16.022;2022-12-18T13:59:03;27.53;;;14.47;;
7813;SDS011;3952;48.364;16.022;2022-12-18T14:01:41;35.10;;;17.30;;
7813;SDS011;3952;48.364;16.022;2022-12-18T14:04:11;37.97;;;16.63;;
7813;SDS011;3952;48.364;16.022;2022-12-18T14:06:44;37.03;;;17.93;;
7813;SDS011;3952;48.364;16.022;2022-12-18T14:09:13;35.30;;;15.77;;
7813;SDS011;3952;48.364;16.022;2022-12-18T14:11:45;29.90;;;16.07;;
7813;SDS011;3952;48.364;16.022;2022-12-18T14:14:14;31.90;;;15.50;;
7813;SDS011;3952;48.364;16.022;2022-12-18T14:16:42;34.00;;;16.53;;
7813;SDS011;3952;48.364;16.022;2022-12-18T14:19:15;30.57;;;15.73;;
7813;SDS011;3952;48.364;16.022;2022-12-18T14:21:47;38.73;;;17.50;;
7813;SDS011;3952;48.364;16.022;2022-12-18T14:24:17;33.50;;;15.40;;
7813;SDS011;3952;48.364;16.022;2022-12-18T14:26:46;32.67;;;16.83;;
7813;SDS011;3952;48.364;16.022;2022-12-18T14:29:21;32.77;;;16.07;;
7813;SDS011;3952;48.364;16.022;2022-12-18T14:32:03;34.60;;;17.00;;
7813;SDS011;3952;48.364;16.022;2022-12-18T14:34:33;24.07;;;14.20;;
7813;SDS011;3952;48.364;16.022;2022-12-18T14:37:00;34.30;;;18.27;;
7813;SDS011;3952;48.364;16.022;2022-12-18T14:39:28;32.63;;;17.27;;
7813;SDS011;3952;48.364;16.022;2022-12-18T14:41:55;35.17;;;16.37;;
7813;SDS011;3952;48.364;16.022;2022-12-18T14:44:22;32.30;;;16.33;;
7813;SDS011;3952;48.364;16.022;2022-12-18T14:46:50;37.93;;;17.73;;
7813;SDS011;3952;48.364;16.022;2022-12-18T14:49:19;35.37;;;17.80;;
7813;SDS011;3952;48.364;16.022;2022-12-18T14:51:52;40.47;;;18.33;;
7813;SDS011;3952;48.364;16.022;2022-12-18T14:54:21;37.80;;;18.53;;
7813;SDS011;3952;48.364;16.022;2022-12-18T14:56:50;39.57;;;17.93;;
7813;SDS011;3952;48.364;16.022;2022-12-18T14:59:25;36.03;;;17.50;;
7813;SDS011;3952;48.364;16.022;2022-12-18T15:01:57;34.00;;;16.97;;
7813;SDS011;3952;48.364;16.022;2022-12-18T15:04:27;34.93;;;17.73;;
7813;SDS011;3952;48.364;16.022;2022-12-18T15:07:05;40.67;;;18.47;;
7813;SDS011;3952;48.364;16.022;2022-12-18T15:09:42;38.13;;;18.37;;
7813;SDS011;3952;48.364;16.022;2022-12-18T15:12:18;41.83;;;19.93;;
7813;SDS011;3952;48.364;16.022;2022-12-18T15:14:51;33.40;;;17.73;;
7813;SDS011;3952;48.364;16.022;2022-12-18T15:17:19;33.00;;;17.00;;
7813;SDS011;3952;48.364;16.022;2022-12-18T15:19:48;34.23;;;17.13;;